createdAt,value
2023-03-01T00:00:27.490Z,22.40
2023-03-01T00:02:33.446Z,24.50
2023-03-01T00:04:39.013Z,24.65
2023-03-01T00:06:48.461Z,23.27
2023-03-01T00:08:53.981Z,24.50
2023-03-01T00:11:06.950Z,23.48
2023-03-01T00:13:11.883Z,23.50
2023-03-01T00:15:16.713Z,22.58
2023-03-01T00:17:21.558Z,21.80
2023-03-01T00:19:26.336Z,24.30
2023-03-01T00:21:31.812Z,24.30
2023-03-01T00:23:41.486Z,22.15
2023-03-01T00:25:46.303Z,22.58
2023-03-01T00:27:51.545Z,20.30
2023-03-01T00:29:56.387Z,19.70
2023-03-01T00:32:01.209Z,22.27
2023-03-01T00:34:07.881Z,23.35
2023-03-01T00:36:14.773Z,21.88
2023-03-01T00:38:19.611Z,23.13
2023-03-01T00:40:27.046Z,21.65
2023-03-01T00:42:31.853Z,21.48
2023-03-01T00:44:36.875Z,22.92
2023-03-01T00:46:42.185Z,24.77
2023-03-01T00:48:47.057Z,21.77
2023-03-01T00:50:51.960Z,23.70
2023-03-01T00:52:57.462Z,24.27
2023-03-01T00:55:02.223Z,20.77
2023-03-01T00:57:10.528Z,23.08
2023-03-01T00:59:18.530Z,22.90
2023-03-01T01:01:28.434Z,26.73
2023-03-01T01:03:33.686Z,23.85
2023-03-01T01:05:39.169Z,22.10
2023-03-01T01:07:44.003Z,21.25
2023-03-01T01:09:49.038Z,21.23
2023-03-01T01:11:55.664Z,23.00
2023-03-01T01:14:03.247Z,21.95
2023-03-01T01:16:09.368Z,23.85
2023-03-01T01:18:16.386Z,23.00
2023-03-01T01:20:27.236Z,26.75
2023-03-01T01:22:32.000Z,22.10
2023-03-01T01:24:37.005Z,23.25
2023-03-01T01:26:42.151Z,25.15
2023-03-01T01:28:47.013Z,28.58
2023-03-01T01:30:54.432Z,24.48
2023-03-01T01:32:59.367Z,23.67
2023-03-01T01:35:04.228Z,24.98
2023-03-01T01:37:09.091Z,25.88
2023-03-01T01:39:14.968Z,21.55
2023-03-01T01:41:21.037Z,22.88
2023-03-01T01:43:27.999Z,25.52
2023-03-01T01:45:38.726Z,25.45
2023-03-01T01:47:49.687Z,26.88
2023-03-01T01:49:57.965Z,26.90
2023-03-01T01:52:12.472Z,22.92
2023-03-01T01:54:22.257Z,23.83
2023-03-01T01:56:28.365Z,21.95
2023-03-01T01:58:34.434Z,22.08
2023-03-01T02:00:40.983Z,21.67
2023-03-01T02:02:53.006Z,24.05
2023-03-01T02:05:11.293Z,24.92
2023-03-01T02:07:20.329Z,22.55
2023-03-01T02:09:29.204Z,23.35
2023-03-01T02:11:35.486Z,24.05
2023-03-01T02:13:41.030Z,23.45
2023-03-01T02:15:46.390Z,23.48
2023-03-01T02:17:55.677Z,21.52
2023-03-01T02:20:15.980Z,23.33
2023-03-01T02:22:26.490Z,23.50
2023-03-01T02:24:40.263Z,24.95
2023-03-01T02:26:52.416Z,27.52
2023-03-01T02:29:01.161Z,25.88
2023-03-01T02:31:21.185Z,24.45
2023-03-01T02:33:26.030Z,21.45
2023-03-01T02:35:34.654Z,26.17
2023-03-01T02:37:40.706Z,21.85
2023-03-01T02:39:50.362Z,24.23
2023-03-01T02:41:57.840Z,20.92
2023-03-01T02:44:05.604Z,24.38
2023-03-01T02:46:12.647Z,23.67
2023-03-01T02:48:17.500Z,23.45
2023-03-01T02:50:42.613Z,25.55
2023-03-01T02:52:51.856Z,24.30
2023-03-01T02:55:02.890Z,23.77
2023-03-01T02:57:08.624Z,27.63
2023-03-01T02:59:16.663Z,24.52
2023-03-01T03:01:22.099Z,22.30
2023-03-01T03:03:26.981Z,27.55
2023-03-01T03:05:33.987Z,26.80
2023-03-01T03:07:41.407Z,22.75
2023-03-01T03:09:46.270Z,22.52
2023-03-01T03:13:57.058Z,24.30
2023-03-01T03:16:06.473Z,24.00
2023-03-01T03:18:14.800Z,22.30
2023-03-01T03:20:21.998Z,23.75
2023-03-01T03:22:29.866Z,25.35
2023-03-01T03:24:39.315Z,25.33
2023-03-01T03:26:44.248Z,28.70
2023-03-01T03:28:49.117Z,24.75
2023-03-01T03:30:53.948Z,26.02
2023-03-01T03:33:03.019Z,27.67
2023-03-01T03:35:12.588Z,23.85
2023-03-01T03:37:29.681Z,23.63
2023-03-01T03:39:35.990Z,24.70
2023-03-01T03:41:40.865Z,25.55
2023-03-01T03:43:47.769Z,24.35
2023-03-01T03:45:55.018Z,26.42
2023-03-01T03:48:02.541Z,24.02
2023-03-01T03:50:08.017Z,28.95
2023-03-01T03:52:14.852Z,25.27
2023-03-01T03:54:19.783Z,24.63
2023-03-01T03:56:28.556Z,23.77
2023-03-01T03:58:33.792Z,28.85
2023-03-01T04:00:39.966Z,25.55
2023-03-01T04:02:45.869Z,25.58
2023-03-01T04:04:53.260Z,26.13
2023-03-01T04:06:58.102Z,24.95
2023-03-01T04:09:05.755Z,28.45
2023-03-01T04:11:22.751Z,26.02
2023-03-01T04:13:27.607Z,28.83
2023-03-01T04:15:34.642Z,26.45
2023-03-01T04:17:40.467Z,27.98
2023-03-01T04:19:45.317Z,26.38
2023-03-01T04:21:52.832Z,26.08
2023-03-01T04:23:57.865Z,28.23
2023-03-01T04:26:03.137Z,26.95
2023-03-01T04:28:08.150Z,28.90
2023-03-01T04:30:14.507Z,29.10
2023-03-01T04:32:19.690Z,26.30
2023-03-01T04:34:24.765Z,27.38
2023-03-01T04:36:34.365Z,29.35
2023-03-01T04:38:42.764Z,23.85
2023-03-01T04:40:47.650Z,26.63
2023-03-01T04:42:52.883Z,28.33
2023-03-01T04:44:57.702Z,26.30
2023-03-01T04:47:02.474Z,27.65
2023-03-01T04:49:07.350Z,24.45
2023-03-01T04:51:14.619Z,25.35
2023-03-01T04:53:19.810Z,26.95
2023-03-01T04:55:27.166Z,26.08
2023-03-01T04:57:32.068Z,23.02
2023-03-01T04:59:37.298Z,27.95
2023-03-01T05:03:50.647Z,30.65
2023-03-01T05:05:57.327Z,30.42
2023-03-01T05:08:04.700Z,28.23
2023-03-01T05:10:10.061Z,27.17
2023-03-01T05:12:17.738Z,28.05
2023-03-01T05:14:22.918Z,29.33
2023-03-01T05:18:34.797Z,29.55
2023-03-01T05:20:39.632Z,23.90
2023-03-01T05:22:44.489Z,24.20
2023-03-01T05:24:49.411Z,25.73
2023-03-01T05:26:55.638Z,25.58
2023-03-01T05:29:03.112Z,26.70
2023-03-01T05:31:11.021Z,27.92
2023-03-01T05:33:16.922Z,26.52
2023-03-01T05:35:22.310Z,26.35
2023-03-01T05:37:27.075Z,26.98
2023-03-01T05:39:33.316Z,26.63
2023-03-01T05:41:38.053Z,29.73
2023-03-01T05:43:44.664Z,34.47
2023-03-01T05:45:52.250Z,25.45
2023-03-01T05:47:58.216Z,27.38
2023-03-01T05:50:03.023Z,30.58
2023-03-01T05:52:08.134Z,30.10
2023-03-01T05:56:17.594Z,29.98
2023-03-01T05:58:23.725Z,29.85
2023-03-01T06:00:29.088Z,27.92
2023-03-01T06:02:36.567Z,31.00
2023-03-01T06:04:41.624Z,27.92
2023-03-01T06:06:46.394Z,31.83
2023-03-01T06:08:51.318Z,28.27
2023-03-01T06:10:56.132Z,32.72
2023-03-01T06:13:01.247Z,28.30
2023-03-01T06:17:11.571Z,29.13
2023-03-01T06:19:21.068Z,28.05
2023-03-01T06:21:31.917Z,30.80
2023-03-01T06:23:37.400Z,27.27
2023-03-01T06:25:42.287Z,29.80
2023-03-01T06:27:47.713Z,30.67
2023-03-01T06:29:52.754Z,30.38
2023-03-01T06:31:57.573Z,28.40
2023-03-01T06:34:02.492Z,30.33
2023-03-01T06:36:12.110Z,31.25
2023-03-01T06:38:19.656Z,29.02
2023-03-01T06:40:24.491Z,28.70
2023-03-01T06:42:29.305Z,29.55
2023-03-01T06:44:34.544Z,31.13
2023-03-01T06:46:39.395Z,27.83
2023-03-01T06:48:44.165Z,26.70
2023-03-01T06:50:49.104Z,26.35
2023-03-01T06:52:59.566Z,29.05
2023-03-01T06:55:05.396Z,31.33
2023-03-01T06:57:10.137Z,31.88
2023-03-01T06:59:14.910Z,28.75
2023-03-01T07:01:19.704Z,34.28
2023-03-01T07:03:25.035Z,28.73
2023-03-01T07:05:29.862Z,30.88
2023-03-01T07:07:34.648Z,30.33
2023-03-01T07:09:42.139Z,30.05
2023-03-01T07:11:48.096Z,27.65
2023-03-01T07:13:52.815Z,30.30
2023-03-01T07:15:57.880Z,32.83
2023-03-01T07:20:08.019Z,29.02
2023-03-01T07:22:12.878Z,30.85
2023-03-01T07:24:18.449Z,31.17
2023-03-01T07:26:26.327Z,27.02
2023-03-01T07:28:31.552Z,31.52
2023-03-01T07:32:41.141Z,32.85
2023-03-01T07:34:46.046Z,32.58
2023-03-01T07:36:50.884Z,37.78
2023-03-01T07:38:56.800Z,30.17
2023-03-01T07:41:03.033Z,32.58
2023-03-01T07:43:10.513Z,27.73
2023-03-01T07:45:16.121Z,30.38
2023-03-01T07:47:21.093Z,32.28
2023-03-01T07:49:27.416Z,28.88
2023-03-01T07:51:32.462Z,28.83
2023-03-01T07:53:38.198Z,30.25
2023-03-01T07:55:42.970Z,28.75
2023-03-01T07:57:47.792Z,34.03
2023-03-01T07:59:55.231Z,35.17
2023-03-01T08:02:00.221Z,30.02
2023-03-01T08:04:08.163Z,28.80
2023-03-01T08:06:14.532Z,28.42
2023-03-01T08:08:19.529Z,28.15
2023-03-01T08:10:24.569Z,26.58
2023-03-01T08:12:29.380Z,29.20
2023-03-01T08:14:34.494Z,30.88
2023-03-01T08:16:42.069Z,28.85
2023-03-01T08:18:47.234Z,28.90
2023-03-01T08:20:52.037Z,31.27
2023-03-01T08:22:56.863Z,25.02
2023-03-01T08:25:01.695Z,28.67
2023-03-01T08:27:07.090Z,30.73
2023-03-01T08:29:11.846Z,28.10
2023-03-01T08:31:22.887Z,25.75
2023-03-01T08:33:30.670Z,28.05
2023-03-01T08:35:37.904Z,28.13
2023-03-01T08:37:42.792Z,30.55
2023-03-01T08:39:47.596Z,32.33
2023-03-01T08:41:53.049Z,25.52
2023-03-01T08:44:00.050Z,27.73
2023-03-01T08:46:05.014Z,27.83
2023-03-01T08:48:09.881Z,28.38
2023-03-01T08:50:17.332Z,26.63
2023-03-01T08:52:22.629Z,29.05
2023-03-01T08:54:27.453Z,28.52
2023-03-01T08:56:34.940Z,28.88
2023-03-01T08:58:40.834Z,26.98
2023-03-01T09:00:45.690Z,24.23
2023-03-01T09:02:50.516Z,26.15
2023-03-01T09:04:55.379Z,26.70
2023-03-01T09:07:05.125Z,28.02
2023-03-01T09:09:10.397Z,26.38
2023-03-01T09:13:21.762Z,28.23
2023-03-01T09:15:26.550Z,27.30
2023-03-01T09:17:33.731Z,27.60
2023-03-01T09:19:38.689Z,27.20
2023-03-01T09:21:52.819Z,26.10
2023-03-01T09:24:01.440Z,26.20
2023-03-01T09:26:06.768Z,28.30
2023-03-01T09:28:24.136Z,27.77
2023-03-01T09:30:33.939Z,26.10
2023-03-01T09:32:43.643Z,25.88
2023-03-01T09:35:00.984Z,24.35
2023-03-01T09:37:05.745Z,23.85
2023-03-01T09:39:13.134Z,24.42
2023-03-01T09:41:35.400Z,26.40
2023-03-01T09:43:49.043Z,24.00
2023-03-01T09:45:57.613Z,24.95
2023-03-01T09:48:03.280Z,23.67
2023-03-01T09:50:15.878Z,25.38
2023-03-01T09:52:29.801Z,24.05
2023-03-01T09:54:37.291Z,24.48
2023-03-01T09:56:45.325Z,24.17
2023-03-01T09:58:55.364Z,24.85
2023-03-01T10:01:06.266Z,25.63
2023-03-01T10:03:20.421Z,23.40
2023-03-01T10:05:40.979Z,22.63
2023-03-01T10:07:52.909Z,21.55
2023-03-01T10:10:01.532Z,22.02
2023-03-01T10:12:12.273Z,22.13
2023-03-01T10:14:31.729Z,22.00
2023-03-01T10:16:44.062Z,23.23
2023-03-01T10:18:52.589Z,24.83
2023-03-01T10:21:00.137Z,23.20
2023-03-01T10:23:05.273Z,22.85
2023-03-01T10:25:19.230Z,23.00
2023-03-01T10:27:27.587Z,22.83
2023-03-01T10:29:38.486Z,22.67
2023-03-01T10:31:47.132Z,25.83
2023-03-01T10:33:55.964Z,21.58
2023-03-01T10:36:00.920Z,21.08
2023-03-01T10:38:11.209Z,21.15
2023-03-01T10:40:23.264Z,23.08
2023-03-01T10:42:32.021Z,21.92
2023-03-01T10:44:45.290Z,22.30
2023-03-01T10:47:04.004Z,22.50
2023-03-01T10:49:19.343Z,20.52
2023-03-01T10:51:26.185Z,21.58
2023-03-01T10:53:38.072Z,23.33
2023-03-01T10:55:45.587Z,22.02
2023-03-01T10:57:51.433Z,23.10
2023-03-01T11:00:06.057Z,21.30
2023-03-01T11:02:25.534Z,23.70
2023-03-01T11:04:30.742Z,23.83
2023-03-01T11:06:40.154Z,23.48
2023-03-01T11:08:46.393Z,21.23
2023-03-01T11:10:53.832Z,24.25
2023-03-01T11:13:11.019Z,22.00
2023-03-01T11:15:29.292Z,24.42
2023-03-01T11:17:53.597Z,24.42
2023-03-01T11:20:18.522Z,24.48
2023-03-01T11:22:25.808Z,22.33
2023-03-01T11:24:42.347Z,21.38
2023-03-01T11:26:55.784Z,20.45
2023-03-01T11:29:05.953Z,22.77
2023-03-01T11:31:13.414Z,21.63
2023-03-01T11:33:24.122Z,18.73
2023-03-01T11:35:31.721Z,19.63
2023-03-01T11:37:41.838Z,21.60
2023-03-01T11:39:54.059Z,18.95
2023-03-01T11:42:18.408Z,21.73
2023-03-01T11:44:30.107Z,22.58
2023-03-01T11:47:12.542Z,26.17
2023-03-01T11:49:42.966Z,20.73
2023-03-01T11:51:57.977Z,17.75
2023-03-01T11:54:13.707Z,20.25
2023-03-01T11:58:49.933Z,19.65
2023-03-01T12:01:11.013Z,20.30
2023-03-01T12:03:29.678Z,22.50
2023-03-01T12:05:59.525Z,18.42
2023-03-01T12:08:12.546Z,18.50
2023-03-01T12:10:31.266Z,20.88
2023-03-01T12:12:46.416Z,18.98
2023-03-01T12:15:19.353Z,19.53
2023-03-01T12:17:41.769Z,19.60
2023-03-01T12:20:11.010Z,17.77
2023-03-01T12:22:33.774Z,17.83
2023-03-01T12:24:55.771Z,20.25
2023-03-01T12:27:17.268Z,19.67
2023-03-01T12:29:30.109Z,20.13
2023-03-01T12:31:56.821Z,18.33
2023-03-01T12:34:09.995Z,17.95
2023-03-01T12:36:28.629Z,19.00
2023-03-01T12:38:41.394Z,22.08
2023-03-01T12:41:25.424Z,20.10
2023-03-01T12:43:45.106Z,14.73
2023-03-01T12:46:00.772Z,19.02
2023-03-01T12:48:24.914Z,20.10
2023-03-01T12:50:41.071Z,17.50
2023-03-01T12:52:51.366Z,21.80
2023-03-01T12:55:00.748Z,21.08
2023-03-01T12:57:13.512Z,18.48
2023-03-01T12:59:26.668Z,19.17
2023-03-01T13:01:40.673Z,15.52
2023-03-01T13:04:06.794Z,19.60
2023-03-01T13:06:19.855Z,16.27
2023-03-01T13:08:31.931Z,18.02
2023-03-01T13:10:43.177Z,21.35
2023-03-01T13:12:56.933Z,21.08
2023-03-01T13:15:01.749Z,23.02
2023-03-01T13:17:06.633Z,21.10
2023-03-01T13:19:18.974Z,21.00
2023-03-01T13:21:35.188Z,22.35
2023-03-01T13:23:42.649Z,18.63
2023-03-01T13:26:07.487Z,23.98
2023-03-01T13:28:42.977Z,17.92
2023-03-01T13:30:47.854Z,22.27
2023-03-01T13:32:52.816Z,22.55
2023-03-01T13:35:05.893Z,21.05
2023-03-01T13:37:22.130Z,19.40
2023-03-01T13:39:42.967Z,19.02
2023-03-01T13:41:55.656Z,25.67
2023-03-01T13:44:01.479Z,24.30
2023-03-01T13:46:13.357Z,21.83
2023-03-01T13:48:26.199Z,18.63
2023-03-01T13:50:42.648Z,19.38
2023-03-01T13:52:50.414Z,17.48
2023-03-01T13:54:56.274Z,17.35
2023-03-01T13:57:02.937Z,27.13
2023-03-01T13:59:19.100Z,20.08
2023-03-01T14:01:30.884Z,17.67
2023-03-01T14:03:44.834Z,19.17
2023-03-01T14:06:14.625Z,18.30
2023-03-01T14:08:26.325Z,21.45
2023-03-01T14:10:40.178Z,18.75
2023-03-01T14:12:50.258Z,19.00
2023-03-01T14:15:02.729Z,20.75
2023-03-01T14:17:20.509Z,19.88
2023-03-01T14:19:33.485Z,17.10
2023-03-01T14:21:41.718Z,15.48
2023-03-01T14:23:47.865Z,21.02
2023-03-01T14:25:54.961Z,17.00
2023-03-01T14:28:23.101Z,19.13
2023-03-01T14:30:30.055Z,22.25
2023-03-01T14:32:36.224Z,22.02
2023-03-01T14:34:47.395Z,19.48
2023-03-01T14:36:54.807Z,22.10
2023-03-01T14:39:05.740Z,19.65
2023-03-01T14:41:13.897Z,20.40
2023-03-01T14:43:26.874Z,17.35
2023-03-01T14:45:34.295Z,18.70
2023-03-01T14:47:43.469Z,22.42
2023-03-01T14:49:49.990Z,19.33
2023-03-01T14:52:03.012Z,20.35
2023-03-01T14:54:22.130Z,22.55
2023-03-01T14:56:26.944Z,18.83
2023-03-01T14:58:32.695Z,20.00
2023-03-01T15:00:38.688Z,19.08
2023-03-01T15:02:44.183Z,17.60
2023-03-01T15:04:52.460Z,18.88
2023-03-01T15:07:06.038Z,18.23
2023-03-01T15:09:17.752Z,18.15
2023-03-01T15:11:26.635Z,21.88
2023-03-01T15:13:34.749Z,19.75
2023-03-01T15:15:45.834Z,19.13
2023-03-01T15:17:57.820Z,18.23
2023-03-01T15:20:03.113Z,20.27
2023-03-01T15:22:19.468Z,21.00
2023-03-01T15:24:29.820Z,20.00
2023-03-01T15:26:39.021Z,20.70
2023-03-01T15:28:52.826Z,18.70
2023-03-01T15:31:01.389Z,20.02
2023-03-01T15:33:23.457Z,18.45
2023-03-01T15:35:46.687Z,14.63
2023-03-01T15:37:54.183Z,15.40
2023-03-01T15:40:00.917Z,20.80
2023-03-01T15:42:05.729Z,16.13
2023-03-01T15:44:20.029Z,18.98
2023-03-01T15:46:29.018Z,17.50
2023-03-01T15:48:34.664Z,15.48
2023-03-01T15:50:41.164Z,16.38
2023-03-01T15:52:46.695Z,15.70
2023-03-01T15:54:54.238Z,17.33
2023-03-01T15:56:59.484Z,14.38
2023-03-01T16:01:16.582Z,16.30
2023-03-01T16:03:22.974Z,16.70
2023-03-01T16:05:31.616Z,14.75
2023-03-01T16:07:40.786Z,19.13
2023-03-01T16:09:45.673Z,19.70
2023-03-01T16:11:53.730Z,20.98
2023-03-01T16:13:58.541Z,15.80
2023-03-01T16:16:03.509Z,16.30
2023-03-01T16:18:11.316Z,17.88
2023-03-01T16:20:27.203Z,20.00
2023-03-01T16:22:35.137Z,17.27
2023-03-01T16:24:41.639Z,21.17
2023-03-01T16:26:46.532Z,15.43
2023-03-01T16:28:54.121Z,18.27
2023-03-01T16:30:58.891Z,16.88
2023-03-01T16:33:26.042Z,19.95
2023-03-01T16:35:37.545Z,18.17
2023-03-01T16:37:42.908Z,19.35
2023-03-01T16:39:48.169Z,19.70
2023-03-01T16:41:53.011Z,17.55
2023-03-01T16:44:00.628Z,17.58
2023-03-01T16:46:05.533Z,19.33
2023-03-01T16:48:10.556Z,20.83
2023-03-01T16:50:15.787Z,17.85
2023-03-01T16:52:20.697Z,18.35
2023-03-01T16:54:25.675Z,18.42
2023-03-01T16:58:36.374Z,20.70
2023-03-01T17:00:43.859Z,20.10
2023-03-01T17:02:48.699Z,22.08
2023-03-01T17:04:56.022Z,19.73
2023-03-01T17:07:01.019Z,18.27
2023-03-01T17:09:05.994Z,19.95
2023-03-01T17:11:13.024Z,21.88
2023-03-01T17:13:20.025Z,20.85
2023-03-01T17:15:24.944Z,19.52
2023-03-01T17:17:32.663Z,22.23
2023-03-01T17:19:40.833Z,22.70
2023-03-01T17:21:45.673Z,18.65
2023-03-01T17:23:52.253Z,22.17
2023-03-01T17:25:57.532Z,21.42
2023-03-01T17:30:13.938Z,23.77
2023-03-01T17:32:21.260Z,19.67
2023-03-01T17:34:29.568Z,21.08
2023-03-01T17:36:41.756Z,21.02
2023-03-01T17:38:47.336Z,19.92
2023-03-01T17:40:52.381Z,24.48
2023-03-01T17:42:57.242Z,22.83
2023-03-01T17:45:02.055Z,21.13
2023-03-01T17:47:07.805Z,22.60
2023-03-01T17:49:12.597Z,22.65
2023-03-01T17:51:19.979Z,25.45
2023-03-01T17:53:24.805Z,23.48
2023-03-01T17:55:29.610Z,26.88
2023-03-01T17:57:34.433Z,23.98
2023-03-01T17:59:39.738Z,22.65
2023-03-01T18:03:50.724Z,27.48
2023-03-01T18:08:05.403Z,28.15
2023-03-01T18:10:11.290Z,26.40
2023-03-01T18:12:16.177Z,28.42
2023-03-01T18:14:20.972Z,27.80
2023-03-01T18:16:25.906Z,26.73
2023-03-01T18:18:32.447Z,24.45
2023-03-01T18:20:37.213Z,28.00
2023-03-01T18:22:42.294Z,27.67
2023-03-01T18:24:49.753Z,27.33
2023-03-01T18:26:54.542Z,26.00
2023-03-01T18:29:01.376Z,30.05
2023-03-01T18:31:08.876Z,28.42
2023-03-01T18:33:13.767Z,27.33
2023-03-01T18:35:18.857Z,27.98
2023-03-01T18:39:28.504Z,29.10
2023-03-01T18:41:36.734Z,28.70
2023-03-01T18:43:41.983Z,29.05
2023-03-01T18:47:51.887Z,32.13
2023-03-01T18:52:01.351Z,28.73
2023-03-01T18:54:06.624Z,31.73
2023-03-01T18:58:19.238Z,30.55
2023-03-01T19:00:25.346Z,29.45
2023-03-01T19:02:30.360Z,32.08
2023-03-01T19:04:35.408Z,26.63
2023-03-01T19:06:41.021Z,27.75
2023-03-01T19:08:46.223Z,30.83
2023-03-01T19:13:02.211Z,28.65
2023-03-01T19:15:10.774Z,30.17
2023-03-01T19:17:17.719Z,29.20
2023-03-01T19:19:22.502Z,34.03
2023-03-01T19:21:27.683Z,32.22
2023-03-01T19:23:35.054Z,30.85
2023-03-01T19:25:39.982Z,29.02
2023-03-01T19:27:45.005Z,31.63
2023-03-01T19:29:49.854Z,30.88
2023-03-01T19:31:57.339Z,33.33
2023-03-01T19:34:11.023Z,29.80
2023-03-01T19:36:17.638Z,31.02
2023-03-01T19:38:22.752Z,33.22
2023-03-01T19:42:35.186Z,33.50
2023-03-01T19:44:40.149Z,30.52
2023-03-01T19:46:45.038Z,31.75
2023-03-01T19:48:52.534Z,30.80
2023-03-01T19:50:57.335Z,32.15
2023-03-01T19:53:02.232Z,32.70
2023-03-01T19:55:10.008Z,29.38
2023-03-01T19:57:16.251Z,31.98
2023-03-01T19:59:24.611Z,31.95
2023-03-01T20:01:33.157Z,31.80
2023-03-01T20:03:38.889Z,31.52
2023-03-01T20:05:46.752Z,29.85
2023-03-01T20:07:51.945Z,32.92
2023-03-01T20:09:57.047Z,31.73
2023-03-01T20:12:02.160Z,31.33
2023-03-01T20:16:18.094Z,30.15
2023-03-01T20:18:23.288Z,31.13
2023-03-01T20:22:38.810Z,33.60
2023-03-01T20:24:44.082Z,34.17
2023-03-01T20:28:55.832Z,35.45
2023-03-01T20:31:06.484Z,29.52
2023-03-01T20:33:12.420Z,33.95
2023-03-01T20:35:17.314Z,29.38
2023-03-01T20:37:23.000Z,33.33
2023-03-01T20:39:30.456Z,33.53
2023-03-01T20:41:38.432Z,32.55
2023-03-01T20:43:44.765Z,32.05
2023-03-01T20:45:49.559Z,34.33
2023-03-01T20:47:55.475Z,30.65
2023-03-01T20:50:02.033Z,30.83
2023-03-01T20:52:07.020Z,33.88
2023-03-01T20:54:11.854Z,32.60
2023-03-01T20:56:20.133Z,34.63
2023-03-01T20:58:39.444Z,32.67
2023-03-01T21:00:44.333Z,34.55
2023-03-01T21:02:49.173Z,34.60
2023-03-01T21:04:54.184Z,31.70
2023-03-01T21:06:59.051Z,32.90
2023-03-01T21:09:03.837Z,34.90
2023-03-01T21:11:09.014Z,38.60
2023-03-01T21:15:29.035Z,36.38
2023-03-01T21:17:36.255Z,34.75
2023-03-01T21:19:43.828Z,34.92
2023-03-01T21:21:48.724Z,37.15
2023-03-01T21:23:53.639Z,35.90
2023-03-01T21:26:06.332Z,38.85
2023-03-01T21:28:11.140Z,38.72
2023-03-01T21:30:19.507Z,37.05
2023-03-01T21:32:24.431Z,39.22
2023-03-01T21:34:29.378Z,34.78
2023-03-01T21:36:35.454Z,37.00
2023-03-01T21:38:42.991Z,38.78
2023-03-01T21:40:47.978Z,38.45
2023-03-01T21:42:52.768Z,35.95
2023-03-01T21:44:57.629Z,40.50
2023-03-01T21:49:10.913Z,39.88
2023-03-01T21:51:19.236Z,39.10
2023-03-01T21:53:24.066Z,39.67
2023-03-01T21:55:28.928Z,35.42
2023-03-01T21:57:43.866Z,37.80
2023-03-01T21:59:48.710Z,35.63
2023-03-01T22:01:54.777Z,30.80
2023-03-01T22:04:03.840Z,35.20
2023-03-01T22:06:09.151Z,32.17
2023-03-01T22:08:14.031Z,30.95
2023-03-01T22:10:27.368Z,33.13
2023-03-01T22:12:32.811Z,34.97
2023-03-01T22:14:37.902Z,33.63
2023-03-01T22:16:45.653Z,31.48
2023-03-01T22:18:51.207Z,34.97
2023-03-01T22:20:58.698Z,35.92
2023-03-01T22:23:03.726Z,32.60
2023-03-01T22:25:09.625Z,34.30
2023-03-01T22:27:14.665Z,36.08
2023-03-01T22:29:22.076Z,39.70
2023-03-01T22:31:27.149Z,39.33
2023-03-01T22:33:32.014Z,42.17
2023-03-01T22:35:36.829Z,46.88
2023-03-01T22:37:44.429Z,43.45
2023-03-01T22:39:49.230Z,50.70
2023-03-01T22:41:54.084Z,43.50
2023-03-01T22:43:59.720Z,36.78
2023-03-01T22:46:13.233Z,35.95
2023-03-01T22:48:20.760Z,33.03
2023-03-01T22:50:25.637Z,39.85
2023-03-01T22:52:30.477Z,35.55
2023-03-01T22:54:38.066Z,40.33
2023-03-01T22:56:43.226Z,35.13
2023-03-01T23:00:52.776Z,40.72
2023-03-01T23:02:57.751Z,37.38
2023-03-01T23:05:02.637Z,36.78
2023-03-01T23:07:07.505Z,36.80
2023-03-01T23:09:13.930Z,34.92
2023-03-01T23:11:26.033Z,34.45
2023-03-01T23:13:31.470Z,31.92
2023-03-01T23:15:36.368Z,35.20
2023-03-01T23:17:41.725Z,36.25
2023-03-01T23:21:51.382Z,35.30
2023-03-01T23:23:57.734Z,37.55
2023-03-01T23:26:02.570Z,33.75
2023-03-01T23:28:10.657Z,35.35
2023-03-01T23:30:16.081Z,38.58
2023-03-01T23:32:20.976Z,39.22
2023-03-01T23:34:25.925Z,46.53
2023-03-01T23:36:33.034Z,43.63
2023-03-01T23:38:37.965Z,43.60
2023-03-01T23:40:42.859Z,40.85
2023-03-01T23:42:47.968Z,51.58
2023-03-01T23:47:00.095Z,37.97
2023-03-01T23:49:05.189Z,38.20
2023-03-01T23:51:10.682Z,42.80
2023-03-01T23:53:18.520Z,38.78
2023-03-01T23:55:23.941Z,35.72
2023-03-01T23:57:28.810Z,37.60
2023-03-01T23:59:33.638Z,35.50
